sensor_id;sensor_type;location;lat;lon;timestamp;P1;durP1;ratioP1;P2;durP2;ratioP2
16766;SDS011;8501;49.926;8.404;2023-09-18T00:01:52;14.25;;;7.70;;
16766;SDS011;8501;49.926;8.404;2023-09-18T00:04:17;10.73;;;7.70;;
16766;SDS011;8501;49.926;8.404;2023-09-18T00:06:43;12.98;;;7.65;;
16766;SDS011;8501;49.926;8.404;2023-09-18T00:09:08;11.65;;;7.80;;
16766;SDS011;8501;49.926;8.404;2023-09-18T00:11:36;10.57;;;8.13;;
16766;SDS011;8501;49.926;8.404;2023-09-18T00:14:03;13.75;;;7.85;;
16766;SDS011;8501;49.926;8.404;2023-09-18T00:16:29;13.02;;;7.82;;
16766;SDS011;8501;49.926;8.404;2023-09-18T00:18:55;14.10;;;7.90;;
16766;SDS011;8501;49.926;8.404;2023-09-18T00:21:20;12.07;;;7.72;;
16766;SDS011;8501;49.926;8.404;2023-09-18T00:23:46;9.65;;;7.75;;
16766;SDS011;8501;49.926;8.404;2023-09-18T00:26:11;10.77;;;8.00;;
16766;SDS011;8501;49.926;8.404;2023-09-18T00:28:37;14.73;;;7.82;;
16766;SDS011;8501;49.926;8.404;2023-09-18T00:31:03;12.15;;;8.38;;
16766;SDS011;8501;49.926;8.404;2023-09-18T00:33:28;12.00;;;8.07;;
16766;SDS011;8501;49.926;8.404;2023-09-18T00:35:54;15.18;;;7.82;;
16766;SDS011;8501;49.926;8.404;2023-09-18T00:38:19;14.27;;;7.80;;
16766;SDS011;8501;49.926;8.404;2023-09-18T00:40:45;12.23;;;7.82;;
16766;SDS011;8501;49.926;8.404;2023-09-18T00:43:11;14.20;;;7.93;;
16766;SDS011;8501;49.926;8.404;2023-09-18T00:45:44;9.50;;;7.47;;
16766;SDS011;8501;49.926;8.404;2023-09-18T00:48:11;13.52;;;7.78;;
16766;SDS011;8501;49.926;8.404;2023-09-18T00:50:37;11.02;;;7.63;;
16766;SDS011;8501;49.926;8.404;2023-09-18T00:53:03;12.88;;;7.60;;
16766;SDS011;8501;49.926;8.404;2023-09-18T00:55:29;12.15;;;7.55;;
16766;SDS011;8501;49.926;8.404;2023-09-18T00:57:56;12.52;;;8.00;;
16766;SDS011;8501;49.926;8.404;2023-09-18T01:00:22;10.52;;;7.45;;
16766;SDS011;8501;49.926;8.404;2023-09-18T01:02:48;11.38;;;7.43;;
16766;SDS011;8501;49.926;8.404;2023-09-18T01:05:14;11.48;;;7.93;;
16766;SDS011;8501;49.926;8.404;2023-09-18T01:07:45;11.80;;;7.72;;
16766;SDS011;8501;49.926;8.404;2023-09-18T01:10:11;12.65;;;7.93;;
16766;SDS011;8501;49.926;8.404;2023-09-18T01:12:45;11.30;;;7.65;;
16766;SDS011;8501;49.926;8.404;2023-09-18T01:15:16;13.20;;;8.02;;
16766;SDS011;8501;49.926;8.404;2023-09-18T01:17:48;11.07;;;7.97;;
16766;SDS011;8501;49.926;8.404;2023-09-18T01:20:13;13.15;;;7.85;;
16766;SDS011;8501;49.926;8.404;2023-09-18T01:22:39;12.10;;;7.57;;
16766;SDS011;8501;49.926;8.404;2023-09-18T01:25:04;9.48;;;7.63;;
16766;SDS011;8501;49.926;8.404;2023-09-18T01:27:31;11.73;;;7.75;;
16766;SDS011;8501;49.926;8.404;2023-09-18T01:29:57;12.52;;;7.82;;
16766;SDS011;8501;49.926;8.404;2023-09-18T01:32:24;11.02;;;7.88;;
16766;SDS011;8501;49.926;8.404;2023-09-18T01:34:53;12.98;;;8.05;;
16766;SDS011;8501;49.926;8.404;2023-09-18T01:37:21;10.10;;;7.75;;
16766;SDS011;8501;49.926;8.404;2023-09-18T01:39:50;12.05;;;8.02;;
16766;SDS011;8501;49.926;8.404;2023-09-18T01:42:16;11.30;;;7.30;;
16766;SDS011;8501;49.926;8.404;2023-09-18T01:44:42;11.68;;;8.25;;
16766;SDS011;8501;49.926;8.404;2023-09-18T01:47:09;13.63;;;7.80;;
16766;SDS011;8501;49.926;8.404;2023-09-18T01:49:38;11.35;;;7.70;;
16766;SDS011;8501;49.926;8.404;2023-09-18T01:52:05;10.98;;;7.38;;
16766;SDS011;8501;49.926;8.404;2023-09-18T01:54:32;14.00;;;7.65;;
16766;SDS011;8501;49.926;8.404;2023-09-18T01:56:59;10.00;;;7.60;;
16766;SDS011;8501;49.926;8.404;2023-09-18T01:59:25;12.73;;;8.13;;
16766;SDS011;8501;49.926;8.404;2023-09-18T02:01:51;20.15;;;9.68;;
16766;SDS011;8501;49.926;8.404;2023-09-18T02:04:18;16.23;;;8.65;;
16766;SDS011;8501;49.926;8.404;2023-09-18T02:06:45;14.70;;;8.30;;
16766;SDS011;8501;49.926;8.404;2023-09-18T02:09:12;11.80;;;7.13;;
16766;SDS011;8501;49.926;8.404;2023-09-18T02:11:41;11.82;;;7.70;;
16766;SDS011;8501;49.926;8.404;2023-09-18T02:14:09;12.77;;;7.30;;
16766;SDS011;8501;49.926;8.404;2023-09-18T02:16:35;9.60;;;7.05;;
16766;SDS011;8501;49.926;8.404;2023-09-18T02:19:02;13.07;;;7.07;;
16766;SDS011;8501;49.926;8.404;2023-09-18T02:21:29;12.18;;;7.13;;
16766;SDS011;8501;49.926;8.404;2023-09-18T02:23:55;11.43;;;6.85;;
16766;SDS011;8501;49.926;8.404;2023-09-18T02:26:21;9.45;;;6.95;;
16766;SDS011;8501;49.926;8.404;2023-09-18T02:28:47;12.27;;;7.03;;
16766;SDS011;8501;49.926;8.404;2023-09-18T02:31:13;12.50;;;7.10;;
16766;SDS011;8501;49.926;8.404;2023-09-18T02:33:39;13.60;;;6.93;;
16766;SDS011;8501;49.926;8.404;2023-09-18T02:36:05;10.35;;;6.90;;
16766;SDS011;8501;49.926;8.404;2023-09-18T02:38:31;10.13;;;6.93;;
16766;SDS011;8501;49.926;8.404;2023-09-18T02:40:58;11.23;;;6.85;;
16766;SDS011;8501;49.926;8.404;2023-09-18T02:43:23;11.32;;;6.65;;
16766;SDS011;8501;49.926;8.404;2023-09-18T02:45:49;8.50;;;6.50;;
16766;SDS011;8501;49.926;8.404;2023-09-18T02:48:15;13.93;;;7.35;;
16766;SDS011;8501;49.926;8.404;2023-09-18T02:50:41;10.93;;;7.20;;
16766;SDS011;8501;49.926;8.404;2023-09-18T02:53:07;12.05;;;7.75;;
16766;SDS011;8501;49.926;8.404;2023-09-18T02:55:41;11.93;;;7.65;;
16766;SDS011;8501;49.926;8.404;2023-09-18T02:58:06;13.82;;;7.15;;
16766;SDS011;8501;49.926;8.404;2023-09-18T03:00:33;11.82;;;7.32;;
16766;SDS011;8501;49.926;8.404;2023-09-18T03:02:59;11.45;;;7.55;;
16766;SDS011;8501;49.926;8.404;2023-09-18T03:05:25;10.68;;;7.07;;
16766;SDS011;8501;49.926;8.404;2023-09-18T03:07:51;13.23;;;7.35;;
16766;SDS011;8501;49.926;8.404;2023-09-18T03:10:17;12.68;;;7.38;;
16766;SDS011;8501;49.926;8.404;2023-09-18T03:12:43;10.18;;;6.95;;
16766;SDS011;8501;49.926;8.404;2023-09-18T03:15:12;12.02;;;6.70;;
16766;SDS011;8501;49.926;8.404;2023-09-18T03:17:38;9.45;;;6.97;;
16766;SDS011;8501;49.926;8.404;2023-09-18T03:20:06;9.45;;;7.15;;
16766;SDS011;8501;49.926;8.404;2023-09-18T03:22:32;11.50;;;6.65;;
16766;SDS011;8501;49.926;8.404;2023-09-18T03:24:57;12.95;;;6.50;;
16766;SDS011;8501;49.926;8.404;2023-09-18T03:27:23;11.15;;;6.82;;
16766;SDS011;8501;49.926;8.404;2023-09-18T03:29:53;10.20;;;6.60;;
16766;SDS011;8501;49.926;8.404;2023-09-18T03:32:19;10.68;;;6.55;;
16766;SDS011;8501;49.926;8.404;2023-09-18T03:34:45;11.50;;;6.80;;
16766;SDS011;8501;49.926;8.404;2023-09-18T03:37:10;10.45;;;6.70;;
16766;SDS011;8501;49.926;8.404;2023-09-18T03:39:36;12.20;;;6.53;;
16766;SDS011;8501;49.926;8.404;2023-09-18T03:42:01;10.82;;;6.70;;
16766;SDS011;8501;49.926;8.404;2023-09-18T03:44:27;14.48;;;7.10;;
16766;SDS011;8501;49.926;8.404;2023-09-18T03:46:53;13.50;;;6.95;;
16766;SDS011;8501;49.926;8.404;2023-09-18T03:49:18;12.25;;;6.70;;
16766;SDS011;8501;49.926;8.404;2023-09-18T03:51:44;9.73;;;7.00;;
16766;SDS011;8501;49.926;8.404;2023-09-18T03:54:09;10.45;;;6.30;;
16766;SDS011;8501;49.926;8.404;2023-09-18T03:56:35;11.05;;;6.40;;
16766;SDS011;8501;49.926;8.404;2023-09-18T03:59:00;10.50;;;6.00;;
16766;SDS011;8501;49.926;8.404;2023-09-18T04:01:26;13.93;;;6.05;;
16766;SDS011;8501;49.926;8.404;2023-09-18T04:03:52;10.63;;;6.22;;
16766;SDS011;8501;49.926;8.404;2023-09-18T04:06:20;8.80;;;6.50;;
16766;SDS011;8501;49.926;8.404;2023-09-18T04:08:46;11.32;;;6.68;;
16766;SDS011;8501;49.926;8.404;2023-09-18T04:11:12;10.68;;;6.53;;
16766;SDS011;8501;49.926;8.404;2023-09-18T04:13:37;14.82;;;7.35;;
16766;SDS011;8501;49.926;8.404;2023-09-18T04:16:04;11.35;;;6.45;;
16766;SDS011;8501;49.926;8.404;2023-09-18T04:18:29;10.80;;;5.60;;
16766;SDS011;8501;49.926;8.404;2023-09-18T04:20:55;9.15;;;5.97;;
16766;SDS011;8501;49.926;8.404;2023-09-18T04:23:24;11.18;;;5.63;;
16766;SDS011;8501;49.926;8.404;2023-09-18T04:25:51;7.70;;;5.15;;
16766;SDS011;8501;49.926;8.404;2023-09-18T04:28:18;8.45;;;5.57;;
16766;SDS011;8501;49.926;8.404;2023-09-18T04:30:45;9.35;;;5.97;;
16766;SDS011;8501;49.926;8.404;2023-09-18T04:33:11;7.90;;;5.53;;
16766;SDS011;8501;49.926;8.404;2023-09-18T04:35:38;7.20;;;5.35;;
16766;SDS011;8501;49.926;8.404;2023-09-18T04:38:05;9.23;;;5.90;;
16766;SDS011;8501;49.926;8.404;2023-09-18T04:40:32;9.93;;;5.32;;
16766;SDS011;8501;49.926;8.404;2023-09-18T04:42:58;10.18;;;5.72;;
16766;SDS011;8501;49.926;8.404;2023-09-18T04:45:24;10.63;;;5.82;;
16766;SDS011;8501;49.926;8.404;2023-09-18T04:47:50;12.75;;;5.80;;
16766;SDS011;8501;49.926;8.404;2023-09-18T04:50:16;8.38;;;5.60;;
16766;SDS011;8501;49.926;8.404;2023-09-18T04:52:42;11.48;;;6.20;;
16766;SDS011;8501;49.926;8.404;2023-09-18T04:55:08;8.07;;;6.00;;
16766;SDS011;8501;49.926;8.404;2023-09-18T04:57:34;10.35;;;6.25;;
16766;SDS011;8501;49.926;8.404;2023-09-18T05:00:00;9.38;;;6.30;;
16766;SDS011;8501;49.926;8.404;2023-09-18T05:02:27;13.32;;;5.82;;
16766;SDS011;8501;49.926;8.404;2023-09-18T05:04:52;8.23;;;5.80;;
16766;SDS011;8501;49.926;8.404;2023-09-18T05:07:20;10.20;;;5.90;;
16766;SDS011;8501;49.926;8.404;2023-09-18T05:09:46;11.35;;;5.82;;
16766;SDS011;8501;49.926;8.404;2023-09-18T05:12:11;10.65;;;6.00;;
16766;SDS011;8501;49.926;8.404;2023-09-18T05:14:41;6.85;;;5.57;;
16766;SDS011;8501;49.926;8.404;2023-09-18T05:17:14;10.60;;;5.90;;
16766;SDS011;8501;49.926;8.404;2023-09-18T05:19:41;8.85;;;5.95;;
16766;SDS011;8501;49.926;8.404;2023-09-18T05:22:10;11.73;;;5.63;;
16766;SDS011;8501;49.926;8.404;2023-09-18T05:24:37;12.18;;;5.95;;
16766;SDS011;8501;49.926;8.404;2023-09-18T05:27:03;9.55;;;5.70;;
16766;SDS011;8501;49.926;8.404;2023-09-18T05:29:31;9.45;;;5.88;;
16766;SDS011;8501;49.926;8.404;2023-09-18T05:31:57;11.93;;;6.47;;
16766;SDS011;8501;49.926;8.404;2023-09-18T05:34:22;9.10;;;5.78;;
16766;SDS011;8501;49.926;8.404;2023-09-18T05:36:48;8.55;;;5.68;;
16766;SDS011;8501;49.926;8.404;2023-09-18T05:39:13;7.55;;;5.97;;
16766;SDS011;8501;49.926;8.404;2023-09-18T05:41:39;8.63;;;5.70;;
16766;SDS011;8501;49.926;8.404;2023-09-18T05:44:05;10.43;;;5.68;;
16766;SDS011;8501;49.926;8.404;2023-09-18T05:46:33;8.63;;;5.60;;
16766;SDS011;8501;49.926;8.404;2023-09-18T05:49:00;9.63;;;5.53;;
16766;SDS011;8501;49.926;8.404;2023-09-18T05:51:27;11.00;;;5.70;;
16766;SDS011;8501;49.926;8.404;2023-09-18T05:53:52;9.93;;;5.57;;
16766;SDS011;8501;49.926;8.404;2023-09-18T05:56:18;12.05;;;5.82;;
16766;SDS011;8501;49.926;8.404;2023-09-18T05:58:44;9.85;;;5.90;;
16766;SDS011;8501;49.926;8.404;2023-09-18T06:01:09;13.18;;;5.72;;
16766;SDS011;8501;49.926;8.404;2023-09-18T06:03:35;9.80;;;5.60;;
16766;SDS011;8501;49.926;8.404;2023-09-18T06:06:04;10.50;;;5.80;;
16766;SDS011;8501;49.926;8.404;2023-09-18T06:08:30;11.85;;;5.82;;
16766;SDS011;8501;49.926;8.404;2023-09-18T06:10:56;8.65;;;5.32;;
16766;SDS011;8501;49.926;8.404;2023-09-18T06:13:24;10.90;;;4.93;;
16766;SDS011;8501;49.926;8.404;2023-09-18T06:15:51;11.20;;;4.82;;
16766;SDS011;8501;49.926;8.404;2023-09-18T06:18:19;12.68;;;5.47;;
16766;SDS011;8501;49.926;8.404;2023-09-18T06:20:47;13.73;;;5.60;;
16766;SDS011;8501;49.926;8.404;2023-09-18T06:23:13;16.50;;;5.25;;
16766;SDS011;8501;49.926;8.404;2023-09-18T06:25:39;16.10;;;5.60;;
16766;SDS011;8501;49.926;8.404;2023-09-18T06:28:05;13.95;;;5.32;;
16766;SDS011;8501;49.926;8.404;2023-09-18T06:30:31;12.25;;;4.95;;
16766;SDS011;8501;49.926;8.404;2023-09-18T06:32:59;11.77;;;5.00;;
16766;SDS011;8501;49.926;8.404;2023-09-18T06:35:26;15.95;;;5.32;;
16766;SDS011;8501;49.926;8.404;2023-09-18T06:37:51;14.93;;;5.50;;
16766;SDS011;8501;49.926;8.404;2023-09-18T06:40:19;14.77;;;5.25;;
16766;SDS011;8501;49.926;8.404;2023-09-18T06:42:45;16.73;;;4.95;;
16766;SDS011;8501;49.926;8.404;2023-09-18T06:45:10;12.68;;;5.03;;
16766;SDS011;8501;49.926;8.404;2023-09-18T06:47:36;13.45;;;4.82;;
16766;SDS011;8501;49.926;8.404;2023-09-18T06:50:02;13.02;;;4.80;;
16766;SDS011;8501;49.926;8.404;2023-09-18T06:52:30;12.23;;;5.15;;
16766;SDS011;8501;49.926;8.404;2023-09-18T06:54:55;14.90;;;4.90;;
16766;SDS011;8501;49.926;8.404;2023-09-18T06:57:23;12.65;;;5.28;;
16766;SDS011;8501;49.926;8.404;2023-09-18T06:59:49;10.63;;;4.60;;
16766;SDS011;8501;49.926;8.404;2023-09-18T07:02:14;11.52;;;5.05;;
16766;SDS011;8501;49.926;8.404;2023-09-18T07:04:40;11.88;;;4.50;;
16766;SDS011;8501;49.926;8.404;2023-09-18T07:07:10;12.55;;;5.13;;
16766;SDS011;8501;49.926;8.404;2023-09-18T07:09:37;14.05;;;4.95;;
16766;SDS011;8501;49.926;8.404;2023-09-18T07:12:03;14.90;;;5.45;;
16766;SDS011;8501;49.926;8.404;2023-09-18T07:14:29;14.50;;;5.43;;
16766;SDS011;8501;49.926;8.404;2023-09-18T07:16:55;15.38;;;5.15;;
16766;SDS011;8501;49.926;8.404;2023-09-18T07:19:21;9.65;;;4.75;;
16766;SDS011;8501;49.926;8.404;2023-09-18T07:21:47;11.65;;;5.10;;
16766;SDS011;8501;49.926;8.404;2023-09-18T07:24:12;12.68;;;5.38;;
16766;SDS011;8501;49.926;8.404;2023-09-18T07:26:45;12.68;;;5.18;;
16766;SDS011;8501;49.926;8.404;2023-09-18T07:29:15;12.07;;;5.40;;
16766;SDS011;8501;49.926;8.404;2023-09-18T07:31:41;12.65;;;4.63;;
16766;SDS011;8501;49.926;8.404;2023-09-18T07:34:07;12.30;;;5.07;;
16766;SDS011;8501;49.926;8.404;2023-09-18T07:36:33;11.23;;;4.70;;
16766;SDS011;8501;49.926;8.404;2023-09-18T07:38:59;8.38;;;4.40;;
16766;SDS011;8501;49.926;8.404;2023-09-18T07:41:24;16.90;;;5.13;;
16766;SDS011;8501;49.926;8.404;2023-09-18T07:43:50;11.23;;;5.05;;
16766;SDS011;8501;49.926;8.404;2023-09-18T07:46:16;14.82;;;5.20;;
16766;SDS011;8501;49.926;8.404;2023-09-18T07:48:41;11.77;;;4.40;;
16766;SDS011;8501;49.926;8.404;2023-09-18T07:51:10;14.30;;;4.50;;
16766;SDS011;8501;49.926;8.404;2023-09-18T07:53:36;13.18;;;4.57;;
16766;SDS011;8501;49.926;8.404;2023-09-18T07:56:02;12.40;;;4.60;;
16766;SDS011;8501;49.926;8.404;2023-09-18T07:58:29;12.68;;;4.07;;
16766;SDS011;8501;49.926;8.404;2023-09-18T08:00:55;11.57;;;4.38;;
16766;SDS011;8501;49.926;8.404;2023-09-18T08:03:22;10.55;;;4.40;;
16766;SDS011;8501;49.926;8.404;2023-09-18T08:05:54;9.90;;;4.43;;
16766;SDS011;8501;49.926;8.404;2023-09-18T08:08:20;13.82;;;4.65;;
16766;SDS011;8501;49.926;8.404;2023-09-18T08:10:50;11.88;;;4.40;;
16766;SDS011;8501;49.926;8.404;2023-09-18T08:13:16;12.15;;;4.45;;
16766;SDS011;8501;49.926;8.404;2023-09-18T08:15:42;13.82;;;4.63;;
16766;SDS011;8501;49.926;8.404;2023-09-18T08:18:08;10.48;;;4.60;;
16766;SDS011;8501;49.926;8.404;2023-09-18T08:20:40;9.63;;;4.05;;
16766;SDS011;8501;49.926;8.404;2023-09-18T08:23:07;9.00;;;3.95;;
16766;SDS011;8501;49.926;8.404;2023-09-18T08:25:33;12.98;;;4.30;;
16766;SDS011;8501;49.926;8.404;2023-09-18T08:27:59;11.43;;;4.03;;
16766;SDS011;8501;49.926;8.404;2023-09-18T08:30:25;11.07;;;3.80;;
16766;SDS011;8501;49.926;8.404;2023-09-18T08:32:50;8.82;;;4.22;;
16766;SDS011;8501;49.926;8.404;2023-09-18T08:35:16;11.02;;;3.92;;
16766;SDS011;8501;49.926;8.404;2023-09-18T08:37:42;7.97;;;3.80;;
16766;SDS011;8501;49.926;8.404;2023-09-18T08:40:11;12.50;;;3.55;;
16766;SDS011;8501;49.926;8.404;2023-09-18T08:42:39;11.73;;;3.80;;
16766;SDS011;8501;49.926;8.404;2023-09-18T08:45:09;11.82;;;3.90;;
16766;SDS011;8501;49.926;8.404;2023-09-18T08:47:39;11.15;;;3.65;;
16766;SDS011;8501;49.926;8.404;2023-09-18T08:50:06;9.00;;;3.10;;
16766;SDS011;8501;49.926;8.404;2023-09-18T08:52:34;8.40;;;3.55;;
16766;SDS011;8501;49.926;8.404;2023-09-18T08:55:00;8.80;;;3.50;;
16766;SDS011;8501;49.926;8.404;2023-09-18T08:57:27;7.90;;;3.47;;
16766;SDS011;8501;49.926;8.404;2023-09-18T08:59:55;7.30;;;3.00;;
16766;SDS011;8501;49.926;8.404;2023-09-18T09:02:22;8.30;;;2.70;;
16766;SDS011;8501;49.926;8.404;2023-09-18T09:04:47;7.25;;;3.10;;
16766;SDS011;8501;49.926;8.404;2023-09-18T09:07:13;10.75;;;2.97;;
16766;SDS011;8501;49.926;8.404;2023-09-18T09:09:39;8.95;;;2.83;;
16766;SDS011;8501;49.926;8.404;2023-09-18T09:12:06;7.18;;;2.60;;
16766;SDS011;8501;49.926;8.404;2023-09-18T09:14:32;7.03;;;2.75;;
16766;SDS011;8501;49.926;8.404;2023-09-18T09:16:58;5.03;;;2.70;;
16766;SDS011;8501;49.926;8.404;2023-09-18T09:19:28;6.75;;;2.72;;
16766;SDS011;8501;49.926;8.404;2023-09-18T09:21:58;6.65;;;2.38;;
16766;SDS011;8501;49.926;8.404;2023-09-18T09:24:38;6.93;;;3.08;;
16766;SDS011;8501;49.926;8.404;2023-09-18T09:27:09;6.93;;;2.50;;
16766;SDS011;8501;49.926;8.404;2023-09-18T09:29:36;7.38;;;2.70;;
16766;SDS011;8501;49.926;8.404;2023-09-18T09:32:15;7.38;;;2.50;;
16766;SDS011;8501;49.926;8.404;2023-09-18T09:34:42;5.22;;;2.05;;
16766;SDS011;8501;49.926;8.404;2023-09-18T09:37:08;6.93;;;2.65;;
16766;SDS011;8501;49.926;8.404;2023-09-18T09:39:34;5.78;;;2.38;;
16766;SDS011;8501;49.926;8.404;2023-09-18T09:42:10;7.15;;;2.33;;
16766;SDS011;8501;49.926;8.404;2023-09-18T09:44:36;7.18;;;2.40;;
16766;SDS011;8501;49.926;8.404;2023-09-18T09:47:01;5.03;;;2.45;;
16766;SDS011;8501;49.926;8.404;2023-09-18T09:49:31;7.60;;;2.97;;
16766;SDS011;8501;49.926;8.404;2023-09-18T09:52:19;3.78;;;2.05;;
16766;SDS011;8501;49.926;8.404;2023-09-18T09:54:47;7.13;;;2.60;;
16766;SDS011;8501;49.926;8.404;2023-09-18T09:57:13;6.60;;;2.22;;
16766;SDS011;8501;49.926;8.404;2023-09-18T09:59:39;4.57;;;1.90;;
16766;SDS011;8501;49.926;8.404;2023-09-18T10:02:09;4.00;;;1.90;;
16766;SDS011;8501;49.926;8.404;2023-09-18T10:04:37;3.78;;;1.90;;
16766;SDS011;8501;49.926;8.404;2023-09-18T10:07:05;6.20;;;1.90;;
16766;SDS011;8501;49.926;8.404;2023-09-18T10:09:34;4.38;;;1.88;;
16766;SDS011;8501;49.926;8.404;2023-09-18T10:12:00;4.88;;;2.22;;
16766;SDS011;8501;49.926;8.404;2023-09-18T10:14:32;3.17;;;1.75;;
16766;SDS011;8501;49.926;8.404;2023-09-18T10:17:04;5.70;;;2.00;;
16766;SDS011;8501;49.926;8.404;2023-09-18T10:19:40;2.55;;;1.63;;
16766;SDS011;8501;49.926;8.404;2023-09-18T10:24:59;4.10;;;1.65;;
16766;SDS011;8501;49.926;8.404;2023-09-18T10:27:32;6.07;;;2.10;;
16766;SDS011;8501;49.926;8.404;2023-09-18T10:29:58;4.45;;;1.80;;
16766;SDS011;8501;49.926;8.404;2023-09-18T10:32:29;4.38;;;1.83;;
16766;SDS011;8501;49.926;8.404;2023-09-18T10:34:56;5.82;;;1.83;;
16766;SDS011;8501;49.926;8.404;2023-09-18T10:37:22;4.70;;;1.52;;
16766;SDS011;8501;49.926;8.404;2023-09-18T10:39:49;4.15;;;1.65;;
16766;SDS011;8501;49.926;8.404;2023-09-18T10:42:17;3.22;;;1.60;;
16766;SDS011;8501;49.926;8.404;2023-09-18T10:44:45;3.28;;;1.50;;
16766;SDS011;8501;49.926;8.404;2023-09-18T10:47:11;2.78;;;1.35;;
16766;SDS011;8501;49.926;8.404;2023-09-18T10:49:39;4.97;;;1.70;;
16766;SDS011;8501;49.926;8.404;2023-09-18T10:52:05;3.53;;;1.67;;
16766;SDS011;8501;49.926;8.404;2023-09-18T10:54:36;4.60;;;1.90;;
16766;SDS011;8501;49.926;8.404;2023-09-18T10:57:03;2.83;;;1.60;;
16766;SDS011;8501;49.926;8.404;2023-09-18T10:59:28;3.83;;;1.58;;
16766;SDS011;8501;49.926;8.404;2023-09-18T11:01:56;4.60;;;1.90;;
16766;SDS011;8501;49.926;8.404;2023-09-18T11:04:22;4.82;;;1.90;;
16766;SDS011;8501;49.926;8.404;2023-09-18T11:09:26;3.92;;;1.95;;
16766;SDS011;8501;49.926;8.404;2023-09-18T11:14:22;6.15;;;1.55;;
16766;SDS011;8501;49.926;8.404;2023-09-18T11:16:49;4.18;;;1.83;;
16766;SDS011;8501;49.926;8.404;2023-09-18T11:19:18;3.60;;;1.92;;
16766;SDS011;8501;49.926;8.404;2023-09-18T11:21:44;4.90;;;1.73;;
16766;SDS011;8501;49.926;8.404;2023-09-18T11:24:20;3.17;;;1.65;;
16766;SDS011;8501;49.926;8.404;2023-09-18T11:26:48;2.28;;;1.67;;
16766;SDS011;8501;49.926;8.404;2023-09-18T11:29:15;5.20;;;1.98;;
16766;SDS011;8501;49.926;8.404;2023-09-18T11:34:19;5.10;;;2.08;;
16766;SDS011;8501;49.926;8.404;2023-09-18T11:36:51;5.20;;;1.83;;
16766;SDS011;8501;49.926;8.404;2023-09-18T11:39:32;5.13;;;1.90;;
16766;SDS011;8501;49.926;8.404;2023-09-18T11:42:08;3.33;;;1.63;;
16766;SDS011;8501;49.926;8.404;2023-09-18T11:44:41;3.40;;;1.65;;
16766;SDS011;8501;49.926;8.404;2023-09-18T11:47:07;4.57;;;1.75;;
16766;SDS011;8501;49.926;8.404;2023-09-18T11:49:37;4.10;;;1.80;;
16766;SDS011;8501;49.926;8.404;2023-09-18T11:52:06;3.50;;;1.80;;
16766;SDS011;8501;49.926;8.404;2023-09-18T11:54:32;4.97;;;1.90;;
16766;SDS011;8501;49.926;8.404;2023-09-18T11:57:02;3.33;;;1.80;;
16766;SDS011;8501;49.926;8.404;2023-09-18T11:59:39;3.10;;;1.88;;
16766;SDS011;8501;49.926;8.404;2023-09-18T12:02:07;3.60;;;1.88;;
16766;SDS011;8501;49.926;8.404;2023-09-18T12:04:35;1.90;;;1.42;;
16766;SDS011;8501;49.926;8.404;2023-09-18T12:07:00;3.05;;;1.80;;
16766;SDS011;8501;49.926;8.404;2023-09-18T12:09:31;3.85;;;1.70;;
16766;SDS011;8501;49.926;8.404;2023-09-18T12:11:58;3.00;;;1.70;;
16766;SDS011;8501;49.926;8.404;2023-09-18T12:14:29;5.35;;;1.67;;
16766;SDS011;8501;49.926;8.404;2023-09-18T12:17:01;2.88;;;1.58;;
16766;SDS011;8501;49.926;8.404;2023-09-18T12:19:28;1.90;;;1.58;;
16766;SDS011;8501;49.926;8.404;2023-09-18T12:21:54;4.38;;;2.10;;
16766;SDS011;8501;49.926;8.404;2023-09-18T12:24:21;3.25;;;1.70;;
16766;SDS011;8501;49.926;8.404;2023-09-18T12:26:53;3.90;;;1.85;;
16766;SDS011;8501;49.926;8.404;2023-09-18T12:29:20;2.33;;;1.63;;
16766;SDS011;8501;49.926;8.404;2023-09-18T12:31:46;4.55;;;2.20;;
16766;SDS011;8501;49.926;8.404;2023-09-18T12:34:16;3.85;;;1.90;;
16766;SDS011;8501;49.926;8.404;2023-09-18T12:36:46;4.38;;;1.73;;
16766;SDS011;8501;49.926;8.404;2023-09-18T12:39:13;5.18;;;2.10;;
16766;SDS011;8501;49.926;8.404;2023-09-18T12:41:41;3.72;;;1.90;;
16766;SDS011;8501;49.926;8.404;2023-09-18T12:44:09;3.97;;;1.90;;
16766;SDS011;8501;49.926;8.404;2023-09-18T12:46:35;5.03;;;1.83;;
16766;SDS011;8501;49.926;8.404;2023-09-18T12:49:14;3.45;;;1.60;;
16766;SDS011;8501;49.926;8.404;2023-09-18T12:51:41;3.90;;;1.90;;
16766;SDS011;8501;49.926;8.404;2023-09-18T12:54:06;5.30;;;1.90;;
16766;SDS011;8501;49.926;8.404;2023-09-18T12:56:32;4.53;;;1.98;;
16766;SDS011;8501;49.926;8.404;2023-09-18T12:58:58;4.65;;;2.15;;
16766;SDS011;8501;49.926;8.404;2023-09-18T13:01:24;2.65;;;1.77;;
16766;SDS011;8501;49.926;8.404;2023-09-18T13:03:53;2.78;;;1.70;;
16766;SDS011;8501;49.926;8.404;2023-09-18T13:06:20;4.18;;;1.90;;
16766;SDS011;8501;49.926;8.404;2023-09-18T13:08:46;3.05;;;1.77;;
16766;SDS011;8501;49.926;8.404;2023-09-18T13:11:13;3.17;;;1.90;;
16766;SDS011;8501;49.926;8.404;2023-09-18T13:13:42;3.53;;;1.70;;
16766;SDS011;8501;49.926;8.404;2023-09-18T13:16:09;4.75;;;1.80;;
16766;SDS011;8501;49.926;8.404;2023-09-18T13:18:35;2.70;;;1.80;;
16766;SDS011;8501;49.926;8.404;2023-09-18T13:21:08;1.83;;;1.55;;
16766;SDS011;8501;49.926;8.404;2023-09-18T13:23:36;2.70;;;1.95;;
16766;SDS011;8501;49.926;8.404;2023-09-18T13:26:02;4.55;;;2.30;;
16766;SDS011;8501;49.926;8.404;2023-09-18T13:28:29;4.07;;;2.00;;
16766;SDS011;8501;49.926;8.404;2023-09-18T13:30:56;4.45;;;2.17;;
16766;SDS011;8501;49.926;8.404;2023-09-18T13:33:22;4.13;;;2.05;;
16766;SDS011;8501;49.926;8.404;2023-09-18T13:35:48;3.38;;;1.95;;
16766;SDS011;8501;49.926;8.404;2023-09-18T13:38:14;2.70;;;2.10;;
16766;SDS011;8501;49.926;8.404;2023-09-18T13:40:40;6.38;;;2.28;;
16766;SDS011;8501;49.926;8.404;2023-09-18T13:43:07;3.72;;;2.10;;
16766;SDS011;8501;49.926;8.404;2023-09-18T13:45:34;3.28;;;2.00;;
16766;SDS011;8501;49.926;8.404;2023-09-18T13:48:00;3.42;;;2.20;;
16766;SDS011;8501;49.926;8.404;2023-09-18T13:50:26;3.80;;;2.00;;
16766;SDS011;8501;49.926;8.404;2023-09-18T13:52:52;2.78;;;2.10;;
16766;SDS011;8501;49.926;8.404;2023-09-18T13:55:18;5.43;;;2.30;;
16766;SDS011;8501;49.926;8.404;2023-09-18T13:57:44;6.90;;;2.30;;
16766;SDS011;8501;49.926;8.404;2023-09-18T14:00:10;5.25;;;2.20;;
16766;SDS011;8501;49.926;8.404;2023-09-18T14:02:37;4.22;;;2.30;;
16766;SDS011;8501;49.926;8.404;2023-09-18T14:05:03;4.22;;;1.95;;
16766;SDS011;8501;49.926;8.404;2023-09-18T14:07:30;6.40;;;2.40;;
16766;SDS011;8501;49.926;8.404;2023-09-18T14:09:56;6.00;;;2.28;;
16766;SDS011;8501;49.926;8.404;2023-09-18T14:12:22;4.72;;;2.00;;
16766;SDS011;8501;49.926;8.404;2023-09-18T14:14:48;3.78;;;2.17;;
16766;SDS011;8501;49.926;8.404;2023-09-18T14:17:13;5.55;;;2.40;;
16766;SDS011;8501;49.926;8.404;2023-09-18T14:19:41;2.75;;;1.95;;
16766;SDS011;8501;49.926;8.404;2023-09-18T14:22:07;5.53;;;2.13;;
16766;SDS011;8501;49.926;8.404;2023-09-18T14:24:33;5.72;;;1.92;;
16766;SDS011;8501;49.926;8.404;2023-09-18T14:26:59;4.97;;;2.10;;
16766;SDS011;8501;49.926;8.404;2023-09-18T14:29:26;5.70;;;2.10;;
16766;SDS011;8501;49.926;8.404;2023-09-18T14:31:51;7.40;;;2.45;;
16766;SDS011;8501;49.926;8.404;2023-09-18T14:34:17;4.30;;;2.22;;
16766;SDS011;8501;49.926;8.404;2023-09-18T14:36:43;9.07;;;2.35;;
16766;SDS011;8501;49.926;8.404;2023-09-18T14:39:09;5.18;;;2.30;;
16766;SDS011;8501;49.926;8.404;2023-09-18T14:41:36;6.47;;;2.22;;
16766;SDS011;8501;49.926;8.404;2023-09-18T14:44:06;10.60;;;3.08;;
16766;SDS011;8501;49.926;8.404;2023-09-18T14:46:36;5.85;;;2.20;;
16766;SDS011;8501;49.926;8.404;2023-09-18T14:49:03;4.38;;;2.17;;
16766;SDS011;8501;49.926;8.404;2023-09-18T14:51:30;10.23;;;2.90;;
16766;SDS011;8501;49.926;8.404;2023-09-18T14:53:57;6.43;;;2.50;;
16766;SDS011;8501;49.926;8.404;2023-09-18T14:56:23;4.50;;;2.53;;
16766;SDS011;8501;49.926;8.404;2023-09-18T14:59:08;5.82;;;2.00;;
16766;SDS011;8501;49.926;8.404;2023-09-18T15:01:34;3.80;;;2.05;;
16766;SDS011;8501;49.926;8.404;2023-09-18T15:03:59;5.63;;;2.40;;
16766;SDS011;8501;49.926;8.404;2023-09-18T15:06:25;3.58;;;2.00;;